Time;durP1;ratioP1;P1;durP2;ratioP2;P2;SDS_P1;SDS_P2;PMS_P1;PMS_P2;Temp;Humidity;BMP_temperature;BMP_pressure;BME280_temperature;BME280_humidity;BME280_pressure;Samples;Min_cycle;Max_cycle;Signal;HPM_P1;HPM_P2
2022/08/26 00:01:13;;;;;;;14.70;3.50;;;;;;;20.89;69.16;64164.22;4893371;29;20238;-79
2022/08/26 00:03:40;;;;;;;17.90;4.68;;;;;;;20.83;69.04;64157.44;4894216;29;20205;-78
2022/08/26 00:06:08;;;;;;;9.27;3.30;;;;;;;20.64;69.72;64136.06;4893698;29;20326;-80
2022/08/26 00:08:36;;;;;;;13.70;3.15;;;;;;;20.77;66.78;64151.19;4910380;29;20205;-79
2022/08/26 00:11:03;;;;;;;5.82;3.08;;;;;;;20.77;67.11;64149.13;4914819;29;20289;-78
2022/08/26 00:13:30;;;;;;;15.57;3.13;;;;;;;20.83;66.63;64154.84;4911098;29;20245;-78
2022/08/26 00:15:59;;;;;;;15.55;3.85;;;;;;;20.83;67.51;64157.97;4910323;29;20237;-78
2022/08/26 00:18:26;;;;;;;11.52;3.13;;;;;;;20.85;67.74;64162.09;4912799;29;20202;-78
2022/08/26 00:20:53;;;;;;;18.33;3.78;;;;;;;20.86;67.08;64158.50;4911980;29;20232;-78
2022/08/26 00:23:21;;;;;;;11.45;3.58;;;;;;;20.91;67.54;64160.63;4911203;29;20213;-79
2022/08/26 00:25:48;;;;;;;21.42;4.22;;;;;;;20.87;67.26;64159.03;4912704;29;20281;-79
2022/08/26 00:28:16;;;;;;;18.98;3.63;;;;;;;20.86;67.52;64161.09;4910537;29;20253;-77
2022/08/26 00:30:46;;;;;;;11.55;3.65;;;;;;;20.86;67.69;64155.41;4910362;29;20228;-77
2022/08/26 00:33:15;;;;;;;8.00;3.53;;;;;;;20.85;67.77;64156.94;4911180;29;20545;-78
2022/08/26 00:35:43;;;;;;;13.63;3.63;;;;;;;20.82;67.90;64151.22;4910522;29;20241;-78
2022/08/26 00:38:10;;;;;;;14.38;4.57;;;;;;;20.78;67.97;64152.75;4910303;29;20198;-78
2022/08/26 00:40:40;;;;;;;15.60;3.63;;;;;;;20.74;67.34;64153.75;4912458;29;20262;-78
2022/08/26 00:43:07;;;;;;;7.97;3.13;;;;;;;20.74;67.07;64151.16;4910256;29;20208;-78
2022/08/26 00:45:42;;;;;;;8.60;3.53;;;;;;;20.73;67.48;64142.34;4912032;29;20202;-79
2022/08/26 00:48:10;;;;;;;13.32;3.97;;;;;;;20.73;67.57;64144.41;4914282;29;20201;-79
2022/08/26 00:50:48;;;;;;;12.88;3.65;;;;;;;20.81;65.65;64155.34;4914433;29;20205;-78
2022/08/26 00:53:21;;;;;;;11.40;3.53;;;;;;;20.77;67.16;64151.69;4914885;29;20209;-78
2022/08/26 00:55:52;;;;;;;8.30;3.42;;;;;;;20.79;66.70;64155.84;4913692;29;20221;-78
2022/08/26 00:58:21;;;;;;;11.80;3.25;;;;;;;20.85;66.29;64159.53;4914596;29;20213;-78
2022/08/26 01:00:48;;;;;;;17.67;3.10;;;;;;;20.81;66.54;64155.34;4915661;29;20229;-79
2022/08/26 01:03:19;;;;;;;17.67;3.65;;;;;;;20.79;66.83;64151.19;4914580;29;20421;-78
2022/08/26 01:05:47;;;;;;;12.95;3.17;;;;;;;20.72;66.57;64143.91;4915731;29;20292;-78
2022/08/26 01:08:14;;;;;;;13.75;3.08;;;;;;;20.72;64.21;64141.31;4899565;29;20322;-78
2022/08/26 01:10:42;;;;;;;19.50;3.05;;;;;;;20.84;63.80;64159.00;4895431;29;20203;-78
2022/08/26 01:13:12;;;;;;;9.70;2.83;;;;;;;20.89;63.62;64161.13;4895621;29;20198;-78
2022/08/26 01:15:45;;;;;;;11.98;3.35;;;;;;;20.96;62.60;64168.44;4894621;29;20283;-78
2022/08/26 01:18:13;;;;;;;9.73;3.05;;;;;;;21.02;62.28;64177.81;4895530;29;20206;-77
2022/08/26 01:20:50;;;;;;;10.52;3.22;;;;;;;21.05;62.05;64177.84;4895116;29;20409;-79
2022/08/26 01:23:19;;;;;;;13.65;3.05;;;;;;;21.16;61.26;64189.84;4895932;29;20217;-78
2022/08/26 01:25:50;;;;;;;11.23;2.95;;;;;;;21.19;60.96;64195.06;4896849;29;20222;-78
2022/08/26 01:28:22;;;;;;;10.02;3.15;;;;;;;21.25;61.25;64201.31;4895460;29;20207;-78
2022/08/26 01:30:51;;;;;;;10.32;2.90;;;;;;;21.23;60.13;64196.63;4894661;29;20595;-79
2022/08/26 01:33:32;;;;;;;17.52;3.78;;;;;;;21.26;59.40;64197.69;4895482;29;20237;-78
2022/08/26 01:35:59;;;;;;;17.23;3.63;;;;;;;21.28;60.35;64202.38;4895967;29;20226;-79
2022/08/26 01:38:28;;;;;;;16.95;3.50;;;;;;;21.24;60.38;64197.69;4894304;29;20507;-76
2022/08/26 01:40:55;;;;;;;15.00;3.13;;;;;;;21.26;60.43;64200.28;4894944;29;20226;-78
2022/08/26 01:43:27;;;;;;;15.23;3.88;;;;;;;21.20;60.71;64198.69;4894702;29;20507;-80
2022/08/26 01:45:55;;;;;;;19.98;4.05;;;;;;;21.18;59.49;64194.00;4894941;29;20223;-78
2022/08/26 01:48:25;;;;;;;15.57;3.92;;;;;;;21.22;61.11;64198.19;4896575;29;20203;-79
2022/08/26 01:50:53;;;;;;;7.85;3.38;;;;;;;21.24;59.88;64198.22;4894188;29;20270;-79
2022/08/26 01:53:23;;;;;;;14.00;3.10;;;;;;;21.17;60.67;64190.38;4896538;29;20520;-79
2022/08/26 01:55:56;;;;;;;13.52;3.10;;;;;;;21.18;61.06;64191.94;4893975;29;20215;-78
2022/08/26 01:58:28;;;;;;;15.77;3.35;;;;;;;21.14;61.45;64187.75;4893414;29;20527;-79
2022/08/26 02:00:56;;;;;;;12.82;3.10;;;;;;;21.09;61.86;64184.63;4895552;29;20288;-77
2022/08/26 02:03:24;;;;;;;20.35;3.97;;;;;;;21.06;61.22;64182.00;4894202;29;20205;-79
2022/08/26 02:05:53;;;;;;;15.63;3.38;;;;;;;20.95;62.08;64170.47;4895380;29;20222;-77
2022/08/26 02:08:25;;;;;;;14.10;4.22;;;;;;;20.87;61.68;64161.63;4910188;29;20202;-77
2022/08/26 02:10:53;;;;;;;9.57;3.38;;;;;;;20.89;61.50;64156.47;4912765;29;20546;-78
2022/08/26 02:13:21;;;;;;;13.23;3.15;;;;;;;20.93;61.81;64167.88;4912843;29;20202;-78
2022/08/26 02:15:49;;;;;;;13.50;2.70;;;;;;;20.77;64.95;64143.94;4912885;29;20229;-77
2022/08/26 02:18:16;;;;;;;8.85;2.75;;;;;;;20.74;66.32;64148.03;4915568;29;20213;-78
2022/08/26 02:20:43;;;;;;;13.13;3.97;;;;;;;20.69;66.22;64148.53;4913850;29;20234;-79
2022/08/26 02:23:10;;;;;;;14.57;3.30;;;;;;;20.64;66.19;64138.66;4913454;29;20265;-79
2022/08/26 02:25:46;;;;;;;19.60;3.00;;;;;;;20.64;66.53;64141.22;4913551;29;20232;-77
2022/08/26 02:28:16;;;;;;;19.02;3.45;;;;;;;20.61;67.23;64130.34;4912028;29;20206;-78
2022/08/26 02:30:43;;;;;;;11.98;3.00;;;;;;;20.60;66.78;64129.28;4913180;29;20277;-78
2022/08/26 02:33:11;;;;;;;7.78;2.92;;;;;;;20.61;66.64;64135.00;4913985;29;20210;-77
2022/08/26 02:35:38;;;;;;;17.63;3.38;;;;;;;20.56;65.36;64129.78;4912440;29;20250;-77
2022/08/26 02:38:07;;;;;;;15.45;3.13;;;;;;;20.54;66.62;64125.09;4912313;29;20213;-78
2022/08/26 02:40:39;;;;;;;15.73;3.83;;;;;;;20.49;68.00;64123.00;4914562;29;20210;-80
2022/08/26 02:43:06;;;;;;;12.40;3.03;;;;;;;20.48;66.98;64121.94;4912265;29;20270;-79
2022/08/26 02:45:35;;;;;;;13.57;3.08;;;;;;;20.44;66.34;64117.25;4912239;29;20198;-78
2022/08/26 02:48:08;;;;;;;13.07;3.50;;;;;;;20.40;66.89;64111.00;4913552;29;20206;-78
2022/08/26 02:50:35;;;;;;;12.07;2.88;;;;;;;20.45;66.51;64118.28;4912399;29;20495;-78
2022/08/26 02:53:03;;;;;;;10.45;3.42;;;;;;;20.42;66.15;64113.09;4913252;29;20209;-79
2022/08/26 02:55:30;;;;;;;10.38;2.97;;;;;;;20.40;65.61;64113.59;4912086;29;20238;-78
2022/08/26 02:57:58;;;;;;;14.32;4.68;;;;;;;20.39;66.00;64112.03;4912101;29;20487;-78
2022/08/26 03:00:25;;;;;;;10.77;2.97;;;;;;;20.46;66.01;64117.28;4912614;29;20257;-79
2022/08/26 03:02:54;;;;;;;12.82;3.30;;;;;;;20.45;66.51;64116.22;4910581;29;20206;-78
2022/08/26 03:05:22;;;;;;;17.77;3.38;;;;;;;20.44;66.53;64114.66;4913993;29;20205;-78
2022/08/26 03:07:49;;;;;;;16.25;3.08;;;;;;;20.41;67.22;64116.72;4913646;29;20216;-78
2022/08/26 03:10:16;;;;;;;9.75;3.22;;;;;;;20.40;68.26;64108.41;4910963;29;20265;-78
2022/08/26 03:12:45;;;;;;;14.38;3.38;;;;;;;20.39;67.95;64112.03;4913488;29;20395;-77
2022/08/26 03:15:13;;;;;;;6.20;3.40;;;;;;;20.42;67.75;64109.97;4911536;29;20245;-76
2022/08/26 03:17:40;;;;;;;7.72;3.10;;;;;;;20.40;68.32;64111.00;4910534;29;20579;-80
2022/08/26 03:20:10;;;;;;;13.25;3.03;;;;;;;20.37;68.53;64107.34;4912118;29;20242;-77
2022/08/26 03:22:37;;;;;;;10.57;2.88;;;;;;;20.37;68.81;64109.94;4911269;29;20222;-77
2022/08/26 03:25:06;;;;;;;13.25;3.05;;;;;;;20.32;68.44;64104.72;4911204;29;20202;-78
2022/08/26 03:27:33;;;;;;;8.10;2.88;;;;;;;20.34;68.76;64104.75;4912587;29;20317;-77
2022/08/26 03:32:45;;;;;;;13.43;3.05;;;;;;;20.35;67.57;64107.84;4911525;29;20257;-79
2022/08/26 03:35:13;;;;;;;17.27;3.53;;;;;;;20.28;68.48;64100.53;4911617;29;20431;-78
2022/08/26 03:37:40;;;;;;;10.10;3.05;;;;;;;20.34;67.38;64104.22;4911660;29;20274;-79
2022/08/26 03:40:10;;;;;;;13.23;2.85;;;;;;;20.41;67.51;64116.72;4912287;29;20242;-79
2022/08/26 03:42:38;;;;;;;15.48;3.20;;;;;;;20.48;67.61;64124.03;4911539;29;20230;-78
2022/08/26 03:45:06;;;;;;;17.73;3.90;;;;;;;20.49;67.80;64125.59;4911149;29;20206;-77
2022/08/26 03:47:33;;;;;;;7.32;3.03;;;;;;;20.54;66.77;64125.09;4911613;29;20257;-77
2022/08/26 03:50:01;;;;;;;10.27;3.67;;;;;;;20.55;66.58;64126.16;4913239;29;20491;-78
2022/08/26 03:52:31;;;;;;;15.77;3.88;;;;;;;20.55;67.43;64131.31;4910060;29;20269;-78
2022/08/26 03:54:58;;;;;;;9.27;3.03;;;;;;;20.49;67.04;64117.81;4912997;29;20234;-78
2022/08/26 03:57:25;;;;;;;18.17;3.53;;;;;;;20.55;67.15;64120.97;4911563;29;20245;-79
2022/08/26 03:59:52;;;;;;;5.32;2.92;;;;;;;20.56;67.15;64127.19;4911807;29;20216;-78
2022/08/26 04:02:20;;;;;;;12.20;3.08;;;;;;;20.57;66.39;64125.66;4912373;29;20210;-79
2022/08/26 04:04:47;;;;;;;18.92;2.97;;;;;;;20.60;65.61;64131.38;4913904;29;20204;-78
2022/08/26 04:07:14;;;;;;;14.65;4.93;;;;;;;20.59;68.19;64132.91;4905298;29;20250;-79
2022/08/26 04:09:42;;;;;;;14.10;3.40;;;;;;;20.59;67.44;64127.72;4893439;29;20206;-78
2022/08/26 04:12:09;;;;;;;16.95;3.40;;;;;;;20.54;67.27;64122.50;4892242;29;20229;-78
2022/08/26 04:14:37;;;;;;;18.13;3.03;;;;;;;20.57;66.64;64126.16;4893699;29;20226;-77
2022/08/26 04:17:05;;;;;;;18.00;3.03;;;;;;;20.62;64.92;64133.47;4893719;29;20223;-79
2022/08/26 04:19:32;;;;;;;11.85;2.95;;;;;;;20.57;66.05;64130.81;4894709;29;20210;-79
2022/08/26 04:22:00;;;;;;;11.23;3.20;;;;;;;20.72;67.85;64148.53;4895373;29;20259;-77
2022/08/26 04:24:27;;;;;;;21.60;3.53;;;;;;;20.79;65.71;64153.25;4892501;29;20227;-78
2022/08/26 04:27:01;;;;;;;17.77;3.80;;;;;;;20.80;65.82;64154.81;4894200;29;20222;-79
2022/08/26 04:29:47;;;;;;;14.25;3.25;;;;;;;20.77;66.40;64154.28;4901371;29;20247;-78
2022/08/26 04:35:10;;;;;;;12.93;4.18;;;;;;;20.65;67.92;64139.19;4944724;23;20246;-79
2022/08/26 04:37:44;;;;;;;10.88;3.63;;;;;;;20.86;69.37;64150.22;4921236;29;20226;-79
2022/08/26 04:40:11;;;;;;;13.90;3.50;;;;;;;20.69;69.19;64143.34;4919437;29;20250;-79
2022/08/26 04:42:39;;;;;;;13.77;4.70;;;;;;;20.87;70.10;64159.03;4912837;29;20230;-79
2022/08/26 04:45:07;;;;;;;15.60;3.50;;;;;;;20.92;70.53;64164.78;4913183;29;20495;-78
2022/08/26 04:47:34;;;;;;;9.73;3.65;;;;;;;21.07;71.06;64180.44;4910130;29;20225;-79
2022/08/26 04:50:01;;;;;;;7.72;3.53;;;;;;;21.21;70.33;64194.56;4912524;29;20218;-80
2022/08/26 04:52:28;;;;;;;12.63;4.93;;;;;;;21.34;70.83;64208.13;4912002;29;20452;-78
2022/08/26 04:54:56;;;;;;;14.40;3.60;;;;;;;21.44;69.07;64216.50;4912124;29;20233;-78
2022/08/26 04:57:23;;;;;;;15.55;3.15;;;;;;;21.37;67.76;64216.97;4913186;29;20234;-78
2022/08/26 04:59:51;;;;;;;21.77;4.10;;;;;;;21.42;68.26;64211.81;4910154;29;20243;-79
2022/08/26 05:02:19;;;;;;;15.55;3.88;;;;;;;21.54;70.79;64229.53;4911666;29;20222;-78
2022/08/26 05:04:46;;;;;;;17.67;4.15;;;;;;;21.61;69.83;64236.31;4911878;29;20202;-78
2022/08/26 05:07:13;;;;;;;13.02;3.65;;;;;;;21.69;70.64;64247.81;4910306;29;20246;-78
2022/08/26 05:09:40;;;;;;;13.40;3.97;;;;;;;21.65;71.00;64238.44;4913317;29;20346;-78
2022/08/26 05:12:08;;;;;;;12.65;3.38;;;;;;;21.77;69.39;64256.19;4912167;29;20460;-79
2022/08/26 05:14:35;;;;;;;8.63;3.85;;;;;;;21.78;71.53;64254.63;4909732;29;20416;-78
2022/08/26 05:17:03;;;;;;;10.55;3.05;;;;;;;21.89;75.41;64262.50;4913820;29;20262;-78
2022/08/26 05:19:31;;;;;;;12.02;3.58;;;;;;;21.96;77.59;64272.41;4911102;29;20269;-80
2022/08/26 05:21:58;;;;;;;9.25;3.30;;;;;;;22.07;76.83;64287.00;4912803;29;20222;-78
2022/08/26 05:24:25;;;;;;;7.07;2.90;;;;;;;22.17;74.03;64296.94;4912839;29;20552;-78
2022/08/26 05:26:56;;;;;;;8.10;3.75;;;;;;;22.29;72.94;64306.88;4919232;29;20246;-79
2022/08/26 05:29:26;;;;;;;12.23;3.28;;;;;;;22.32;73.31;64307.94;4915488;29;20202;-78
2022/08/26 05:31:53;;;;;;;14.32;4.45;;;;;;;22.47;69.63;64328.81;4912408;29;20218;-78
2022/08/26 05:34:22;;;;;;;9.18;2.90;;;;;;;22.57;68.00;64341.38;4915322;29;20252;-79
2022/08/26 05:36:49;;;;;;;15.85;4.75;;;;;;;22.64;66.63;64346.63;4916939;29;20585;-79
2022/08/26 05:39:16;;;;;;;7.78;3.20;;;;;;;22.65;68.34;64347.13;4915079;29;20214;-79
2022/08/26 05:41:43;;;;;;;10.05;3.22;;;;;;;22.73;66.76;64348.25;4915157;29;20289;-79
2022/08/26 05:44:13;;;;;;;9.65;3.67;;;;;;;22.72;67.90;64347.19;4916389;29;20214;-79
2022/08/26 05:46:43;;;;;;;16.55;3.85;;;;;;;22.73;68.14;64348.25;4916641;29;20262;-78
2022/08/26 05:49:11;;;;;;;11.75;4.18;;;;;;;22.64;68.77;64340.91;4914322;29;20202;-79
2022/08/26 05:51:40;;;;;;;8.75;3.90;;;;;;;22.57;71.49;64334.09;4914982;29;20321;-79
2022/08/26 05:54:07;;;;;;;10.68;3.10;;;;;;;22.52;71.82;64328.84;4915571;29;20211;-79
2022/08/26 05:56:34;;;;;;;12.75;3.45;;;;;;;22.34;68.27;64317.31;4916469;29;20297;-79
2022/08/26 05:59:02;;;;;;;17.13;4.05;;;;;;;22.19;70.18;64299.56;4917191;29;20230;-79
2022/08/26 06:01:32;;;;;;;11.82;3.75;;;;;;;22.24;70.84;64299.59;4915335;29;20229;-79
2022/08/26 06:04:04;;;;;;;9.15;3.05;;;;;;;22.33;75.81;64314.19;4914653;29;20235;-80
2022/08/26 06:06:33;;;;;;;16.90;3.63;;;;;;;22.41;72.68;64319.44;4915562;29;20229;-79
2022/08/26 06:09:05;;;;;;;12.10;4.13;;;;;;;22.34;70.34;64312.13;4896523;29;20206;-78
2022/08/26 06:11:33;;;;;;;11.52;3.88;;;;;;;22.36;72.91;64314.75;4896346;29;20230;-79
2022/08/26 06:14:02;;;;;;;11.27;3.47;;;;;;;22.48;78.91;64324.16;4896981;29;20203;-79
2022/08/26 06:16:29;;;;;;;5.28;3.22;;;;;;;22.50;78.79;64329.34;4895352;29;20288;-78
2022/08/26 06:18:56;;;;;;;15.60;4.43;;;;;;;22.68;76.89;64350.28;4896655;29;20241;-80
2022/08/26 06:21:26;;;;;;;9.07;3.33;;;;;;;22.61;70.87;64335.69;4895479;29;20431;-80
2022/08/26 06:26:46;;;;;;;23.08;4.60;;;;;;;22.71;77.18;64356.53;4896516;29;20225;-79
2022/08/26 06:29:14;;;;;;;6.35;3.80;;;;;;;22.73;80.60;64355.50;4895947;29;20198;-80
2022/08/26 06:31:41;;;;;;;9.35;3.97;;;;;;;22.91;78.41;64369.13;4896637;29;20293;-78
2022/08/26 06:34:09;;;;;;;9.68;4.25;;;;;;;23.01;74.31;64384.25;4897468;29;20215;-79
2022/08/26 06:36:38;;;;;;;20.25;3.88;;;;;;;23.14;76.73;64397.88;4898496;29;20267;-80
2022/08/26 06:39:08;;;;;;;9.00;3.78;;;;;;;23.05;80.39;64385.84;4897845;29;20203;-78
2022/08/26 06:41:35;;;;;;;10.75;3.63;;;;;;;22.97;80.26;64383.19;4898404;29;20222;-79
2022/08/26 06:44:06;;;;;;;11.85;3.85;;;;;;;23.00;79.90;64378.56;4896910;29;20199;-80
2022/08/26 06:46:34;;;;;;;13.18;4.18;;;;;;;23.03;80.06;64384.28;4896979;29;20415;-79
2022/08/26 06:49:01;;;;;;;10.27;3.55;;;;;;;23.01;86.53;64381.66;4895989;29;20202;-79
2022/08/26 06:51:32;;;;;;;7.25;3.60;;;;;;;23.20;84.35;64398.94;4897100;29;20249;-78
2022/08/26 06:54:00;;;;;;;6.55;3.75;;;;;;;23.17;85.81;64398.41;4895809;29;20209;-79
2022/08/26 06:56:29;;;;;;;15.45;3.90;;;;;;;23.32;82.70;64414.09;4896008;29;20238;-79
2022/08/26 06:58:56;;;;;;;14.18;3.78;;;;;;;23.48;84.57;64430.84;4895140;29;20214;-80
2022/08/26 07:02:13;;;;;;;12.93;3.58;;;;;;;23.46;85.12;64431.88;4896867;29;20223;-80
2022/08/26 07:04:43;;;;;;;9.65;4.00;;;;;;;23.66;81.04;64445.00;4898028;29;20252;-80
2022/08/26 07:07:34;;;;;;;16.30;5.13;;;;;;;23.71;76.05;64455.44;4897530;29;20220;-79
2022/08/26 07:10:04;;;;;;;8.55;4.40;;;;;;;23.55;76.39;64435.56;4900307;29;20265;-79
2022/08/26 07:12:32;;;;;;;13.65;4.35;;;;;;;23.53;80.35;64436.59;4900594;29;20250;-79
2022/08/26 07:14:59;;;;;;;15.38;4.72;;;;;;;23.53;82.74;64433.47;4894737;29;20211;-78
2022/08/26 07:17:26;;;;;;;12.00;4.85;;;;;;;23.69;81.00;64455.44;4896307;29;20329;-78
2022/08/26 07:19:54;;;;;;;14.95;4.03;;;;;;;23.87;78.95;64469.03;4896062;29;20451;-79
2022/08/26 07:22:22;;;;;;;12.38;4.50;;;;;;;23.91;71.76;64478.97;4896066;29;20238;-78
2022/08/26 07:24:49;;;;;;;13.80;4.28;;;;;;;23.89;74.06;64476.34;4897758;29;20227;-79
2022/08/26 07:27:17;;;;;;;18.85;4.07;;;;;;;24.04;74.45;64492.06;4895814;29;20222;-78
2022/08/26 07:29:44;;;;;;;14.10;4.07;;;;;;;24.29;68.38;64517.72;4895900;29;20227;-79
2022/08/26 07:32:19;;;;;;;15.60;4.47;;;;;;;24.34;70.32;64515.66;4897076;29;20404;-77
2022/08/26 07:34:46;;;;;;;8.43;4.20;;;;;;;24.48;68.20;64535.53;4894661;29;20333;-77
2022/08/26 07:37:15;;;;;;;12.77;4.63;;;;;;;24.51;69.75;64538.66;4897072;29;20242;-78
2022/08/26 07:39:43;;;;;;;7.85;3.65;;;;;;;24.61;64.25;64543.94;4896581;29;20209;-79
2022/08/26 07:42:13;;;;;;;11.02;3.92;;;;;;;24.51;61.86;64538.66;4897085;29;20227;-80
2022/08/26 07:44:41;;;;;;;13.05;4.68;;;;;;;24.78;62.48;64569.56;4896470;29;20492;-79
2022/08/26 07:47:08;;;;;;;10.90;4.45;;;;;;;24.94;61.84;64585.78;4894733;29;20222;-79
2022/08/26 07:49:36;;;;;;;19.08;6.38;;;;;;;24.61;62.86;64548.63;4895247;29;20251;-80
2022/08/26 07:52:05;;;;;;;23.08;6.57;;;;;;;24.38;62.00;64530.28;4895643;29;20226;-79
2022/08/26 07:54:33;;;;;;;21.80;6.10;;;;;;;24.36;62.40;64528.19;4896575;29;20266;-80
2022/08/26 07:57:00;;;;;;;8.45;4.97;;;;;;;24.71;59.32;64559.13;4894118;29;20242;-80
2022/08/26 07:59:27;;;;;;;18.92;6.05;;;;;;;24.97;57.77;64578.53;4895613;29;20265;-80
2022/08/26 08:01:56;;;;;;;10.70;4.03;;;;;;;25.23;55.82;64616.16;4895316;29;20222;-79
2022/08/26 08:04:23;;;;;;;25.63;5.97;;;;;;;25.28;56.91;64621.44;4895725;29;20228;-78
2022/08/26 08:06:50;;;;;;;20.98;5.40;;;;;;;24.89;57.06;64577.94;4901691;29;20226;-78
2022/08/26 08:09:17;;;;;;;16.05;5.65;;;;;;;25.13;56.93;64607.78;4913036;29;20213;-78
2022/08/26 08:11:46;;;;;;;14.20;5.07;;;;;;;25.29;54.38;64616.72;4912682;29;20278;-78
2022/08/26 08:14:14;;;;;;;16.25;4.82;;;;;;;25.67;52.80;64662.31;4914376;29;20206;-78
2022/08/26 08:16:42;;;;;;;20.10;5.60;;;;;;;25.76;52.96;64671.22;4913403;29;20429;-78
2022/08/26 08:19:09;;;;;;;24.85;5.65;;;;;;;26.21;50.64;64718.91;4914721;29;20210;-79
2022/08/26 08:21:36;;;;;;;15.60;5.40;;;;;;;26.45;49.49;64743.03;4914472;29;20250;-79
2022/08/26 08:24:03;;;;;;;15.32;3.90;;;;;;;26.18;49.98;64715.25;4914492;29;20415;-79
2022/08/26 08:26:30;;;;;;;9.75;3.92;;;;;;;26.35;49.83;64733.09;4913362;29;20249;-78
2022/08/26 08:28:59;;;;;;;14.82;4.43;;;;;;;26.19;47.74;64716.84;4914000;29;20202;-79
2022/08/26 08:31:30;;;;;;;11.65;4.22;;;;;;;26.41;47.94;64736.75;4914437;29;20353;-79
2022/08/26 08:33:57;;;;;;;20.98;4.80;;;;;;;26.51;47.95;64749.84;4915384;29;20214;-77
2022/08/26 08:36:24;;;;;;;15.90;4.00;;;;;;;25.95;48.28;64691.13;4911952;29;20241;-79
2022/08/26 08:38:51;;;;;;;18.48;4.15;;;;;;;25.91;47.98;64686.94;4915263;29;20208;-79
2022/08/26 08:41:40;;;;;;;11.70;4.28;;;;;;;26.25;44.82;64725.19;4913951;29;20222;-78
2022/08/26 08:44:14;;;;;;;10.88;3.85;;;;;;;26.04;44.30;64701.09;4911462;29;20202;-78
2022/08/26 08:46:43;;;;;;;14.40;3.70;;;;;;;25.42;44.42;64636.09;4912987;29;20234;-77
2022/08/26 08:49:14;;;;;;;13.48;3.08;;;;;;;25.87;41.27;64683.25;4912032;29;20446;-80
2022/08/26 08:51:46;;;;;;;14.65;3.17;;;;;;;25.97;40.41;64690.63;4912318;29;20222;-78
2022/08/26 08:54:14;;;;;;;13.77;3.75;;;;;;;26.13;42.06;64707.94;4913738;29;20208;-78
2022/08/26 08:56:48;;;;;;;11.15;3.38;;;;;;;26.35;43.69;64733.09;4912385;29;20257;-79
2022/08/26 08:59:19;;;;;;;11.15;3.83;;;;;;;26.69;43.00;64768.22;4911283;29;20225;-79
2022/08/26 09:01:55;;;;;;;9.88;3.70;;;;;;;26.36;41.76;64731.00;4913614;29;20543;-78
2022/08/26 09:04:51;;;;;;;15.80;4.25;;;;;;;26.77;40.94;64779.75;4912309;29;20238;-78
2022/08/26 09:07:20;;;;;;;17.60;3.78;;;;;;;26.94;41.02;64791.81;4912282;29;20249;-76
2022/08/26 09:09:53;;;;;;;12.15;4.40;;;;;;;26.94;41.96;64794.97;4916319;29;20206;-78
2022/08/26 09:12:24;;;;;;;9.45;3.92;;;;;;;27.18;41.54;64817.03;4916100;29;20226;-78
2022/08/26 09:14:56;;;;;;;14.85;3.97;;;;;;;27.66;41.04;64869.50;4917019;29;20202;-79
2022/08/26 09:17:35;;;;;;;8.50;4.10;;;;;;;27.74;40.15;64875.78;4917475;29;20313;-78
2022/08/26 09:20:12;;;;;;;14.27;3.80;;;;;;;27.13;41.11;64812.28;4914782;29;20353;-79
2022/08/26 09:22:40;;;;;;;14.80;4.50;;;;;;;27.15;41.32;64819.63;4915245;29;20218;-79
2022/08/26 09:25:12;;;;;;;14.82;4.30;;;;;;;27.44;40.34;64844.31;4916827;29;20571;-79
2022/08/26 09:27:44;;;;;;;12.25;4.80;;;;;;;27.52;41.89;64855.31;4915728;29;20233;-79
2022/08/26 09:30:16;;;;;;;17.88;4.90;;;;;;;27.61;41.37;64864.75;4916471;29;20426;-78
2022/08/26 09:32:44;;;;;;;9.57;3.67;;;;;;;27.67;41.42;64870.53;4915453;29;20233;-78
2022/08/26 09:35:25;;;;;;;9.48;4.20;;;;;;;27.06;41.41;64807.56;4914843;29;20217;-77
2022/08/26 09:37:52;;;;;;;15.80;4.35;;;;;;;26.64;41.44;64760.88;4913052;29;20249;-78
2022/08/26 09:40:26;;;;;;;8.52;4.38;;;;;;;26.73;41.08;64767.19;4914874;29;20222;-77
2022/08/26 09:43:12;;;;;;;16.48;4.93;;;;;;;26.79;40.91;64778.72;4915097;29;20214;-78
2022/08/26 09:45:43;;;;;;;11.30;4.00;;;;;;;26.40;41.91;64735.19;4912920;29;20230;-78
2022/08/26 09:48:10;;;;;;;12.95;4.68;;;;;;;26.92;39.91;64789.75;4914451;29;20269;-78
2022/08/26 09:50:40;;;;;;;13.13;3.80;;;;;;;27.07;39.63;64808.63;4914523;29;20220;-79
2022/08/26 09:53:14;;;;;;;14.25;5.55;;;;;;;26.92;39.64;64790.25;4915199;29;20206;-78
2022/08/26 09:55:43;;;;;;;18.23;5.43;;;;;;;26.93;39.17;64791.31;4916160;29;20257;-79
2022/08/26 09:58:14;;;;;;;17.30;5.35;;;;;;;27.00;39.01;64798.66;4913528;29;20287;-79
2022/08/26 10:00:44;;;;;;;6.43;4.72;;;;;;;27.04;38.33;64802.34;4914163;29;20221;-79
2022/08/26 10:03:22;;;;;;;15.43;4.70;;;;;;;26.74;39.66;64776.63;4915302;29;20218;-78
2022/08/26 10:05:57;;;;;;;9.82;5.65;;;;;;;26.71;39.31;64768.25;4913792;29;20232;-78
2022/08/26 10:08:28;;;;;;;6.50;4.88;;;;;;;26.81;38.70;64776.13;4916086;29;20209;-76
2022/08/26 10:10:56;;;;;;;9.98;5.35;;;;;;;26.50;38.98;64753.50;4913600;29;20226;-78
2022/08/26 10:13:30;;;;;;;13.10;5.85;;;;;;;26.72;39.14;64771.38;4913849;29;20194;-77
2022/08/26 10:16:09;;;;;;;6.93;4.82;;;;;;;27.04;38.57;64802.34;4915755;29;20233;-79
2022/08/26 10:18:40;;;;;;;19.38;5.82;;;;;;;26.98;39.20;64793.41;4913582;29;20198;-78
2022/08/26 10:21:10;;;;;;;12.80;6.15;;;;;;;27.03;38.36;64806.50;4913818;29;20218;-79
2022/08/26 10:23:42;;;;;;;14.00;6.32;;;;;;;27.25;37.27;64826.97;4915280;29;20205;-77
2022/08/26 10:26:14;;;;;;;10.80;5.40;;;;;;;26.70;38.50;64767.19;4913131;29;20283;-79
2022/08/26 10:28:48;;;;;;;13.13;5.93;;;;;;;26.99;38.02;64799.69;4914171;29;20499;-78
2022/08/26 10:31:29;;;;;;;9.20;5.72;;;;;;;27.26;37.17;64822.78;4915490;29;20229;-79
2022/08/26 10:33:57;;;;;;;11.38;5.57;;;;;;;27.20;38.06;64819.63;4914864;29;20312;-77
2022/08/26 10:39:16;;;;;;;8.13;6.40;;;;;;;27.25;35.74;64822.25;4913750;29;20229;-79
2022/08/26 10:41:47;;;;;;;12.73;5.70;;;;;;;26.98;36.42;64796.56;4913371;29;20290;-78
2022/08/26 10:44:17;;;;;;;10.77;6.00;;;;;;;27.22;37.36;64821.19;4913412;29;20205;-77
2022/08/26 10:46:51;;;;;;;12.52;6.10;;;;;;;27.55;35.98;64861.09;4913038;29;20253;-78
2022/08/26 10:49:18;;;;;;;13.30;6.18;;;;;;;27.37;36.44;64836.44;4914498;29;20204;-78
2022/08/26 10:51:56;;;;;;;15.07;5.95;;;;;;;27.41;37.68;64841.16;4913011;29;20226;-78
2022/08/26 10:54:33;;;;;;;13.32;5.72;;;;;;;27.61;37.35;64864.75;4913783;29;20206;-77
2022/08/26 10:57:08;;;;;;;9.75;5.70;;;;;;;27.39;36.67;64839.06;4914760;29;20229;-77
2022/08/26 10:59:52;;;;;;;12.25;6.50;;;;;;;26.85;38.16;64785.00;4912210;29;20232;-77
2022/08/26 11:02:26;;;;;;;19.95;6.38;;;;;;;26.85;38.68;64785.53;4913880;29;20226;-79
2022/08/26 11:04:57;;;;;;;16.80;6.15;;;;;;;26.96;38.01;64794.47;4914747;29;20518;-78
2022/08/26 11:07:33;;;;;;;15.50;6.32;;;;;;;27.11;36.36;64810.19;4905082;29;20322;-79
2022/08/26 11:10:02;;;;;;;17.60;7.05;;;;;;;27.13;38.17;64819.59;4895697;29;20215;-77
2022/08/26 11:12:58;;;;;;;16.23;6.15;;;;;;;27.26;37.12;64828.56;4895393;29;20406;-78
2022/08/26 11:16:09;;;;;;;14.40;5.78;;;;;;;27.00;36.42;64798.66;4893178;29;20207;-78
2022/08/26 11:18:41;;;;;;;9.02;5.85;;;;;;;27.09;37.61;64813.31;4837641;29;20210;-76
2022/08/26 11:21:46;;;;;;;11.52;5.90;;;;;;;27.15;36.81;64817.00;4893117;29;20255;-79
2022/08/26 11:24:46;;;;;;;9.77;5.95;;;;;;;27.02;38.09;64802.84;4891986;29;20296;-78
2022/08/26 11:28:01;;;;;;;11.55;5.45;;;;;;;26.72;36.53;64766.66;4894577;29;20245;-78
2022/08/26 11:30:55;;;;;;;10.77;6.45;;;;;;;26.61;37.89;64757.22;4893489;29;20190;-79
2022/08/26 11:33:57;;;;;;;8.63;6.22;;;;;;;26.62;38.23;64758.25;4896247;29;20218;-80
2022/08/26 11:36:59;;;;;;;9.35;6.35;;;;;;;26.51;38.66;64747.25;4893738;29;20254;-78
2022/08/26 11:39:49;;;;;;;15.18;6.03;;;;;;;26.44;37.57;64739.91;4895027;29;20234;-78
2022/08/26 11:59:22;;;;;;;19.10;6.32;;;;;;;27.66;37.27;64866.88;4894880;29;20444;-78
2022/08/26 12:01:52;;;;;;;8.82;5.13;;;;;;;27.99;36.74;64909.91;4895912;29;20251;-77
2022/08/26 12:04:28;;;;;;;11.60;5.53;;;;;;;27.87;37.27;64886.81;4896075;29;20210;-78
2022/08/26 12:06:57;;;;;;;11.80;5.68;;;;;;;27.99;36.29;64896.81;4898563;29;20302;-78
2022/08/26 12:09:29;;;;;;;12.30;5.22;;;;;;;27.85;35.83;64886.81;4912484;29;20212;-77
2022/08/26 12:12:11;;;;;;;19.35;5.85;;;;;;;27.76;36.68;64880.50;4914081;29;20568;-78